Time;durP1;ratioP1;P1;durP2;ratioP2;P2;SDS_P1;SDS_P2;PMS_P1;PMS_P2;Temp;Humidity;BMP_temperature;BMP_pressure;BME280_temperature;BME280_humidity;BME280_pressure;Samples;Min_cycle;Max_cycle;Signal;HPM_P1;HPM_P2
2022/05/15 00:01:28;;;;;;;12.25;6.45;;;;;;;21.03;100.00;101005.94;4881283;29;20028;-74
2022/05/15 00:04:14;;;;;;;7.55;5.88;;;;;;;20.83;100.00;101010.59;4881338;29;20091;-74
2022/05/15 00:07:00;;;;;;;9.27;5.55;;;;;;;20.93;100.00;101020.69;4867347;29;20402;-74
2022/05/15 00:09:46;;;;;;;9.70;6.03;;;;;;;20.54;100.00;101020.16;4867927;29;20344;-72
2022/05/15 00:12:32;;;;;;;11.05;5.90;;;;;;;20.67;100.00;101023.91;4880824;29;20108;-74
2022/05/15 00:15:18;;;;;;;12.20;6.40;;;;;;;20.48;100.00;101023.16;4867561;29;20356;-74
2022/05/15 00:18:04;;;;;;;9.35;6.50;;;;;;;20.46;100.00;101025.06;4867140;29;20053;-72
2022/05/15 00:20:51;;;;;;;11.60;6.38;;;;;;;20.31;100.00;101031.19;4868135;29;20037;-73
2022/05/15 00:23:37;;;;;;;9.98;6.45;;;;;;;20.54;100.00;101032.63;4881160;29;20064;-73
2022/05/15 00:26:23;;;;;;;10.43;7.10;;;;;;;20.41;100.00;101043.03;4881184;29;20033;-74
2022/05/15 00:29:08;;;;;;;10.48;6.75;;;;;;;20.54;100.00;101041.44;4880604;29;20029;-74
2022/05/15 00:31:54;;;;;;;9.32;6.68;;;;;;;20.21;100.00;101045.03;4867533;29;20065;-74
2022/05/15 00:34:40;;;;;;;9.90;6.43;;;;;;;20.15;100.00;101048.00;4880209;29;20032;-73
2022/05/15 00:37:26;;;;;;;14.25;7.70;;;;;;;20.05;100.00;101047.56;4880895;29;20093;-73
2022/05/15 00:40:14;;;;;;;11.55;7.00;;;;;;;19.98;100.00;101051.50;4880507;29;20025;-72
2022/05/15 00:43:00;;;;;;;11.85;7.50;;;;;;;20.05;100.00;101063.53;4880121;29;20036;-74
2022/05/15 00:45:46;;;;;;;13.32;8.15;;;;;;;19.94;100.00;101065.03;4867241;29;20085;-73
2022/05/15 00:48:32;;;;;;;13.40;9.00;;;;;;;19.80;100.00;101068.38;4880938;29;20108;-73
2022/05/15 00:51:18;;;;;;;16.02;9.43;;;;;;;19.80;100.00;101070.19;4880918;29;20044;-73
2022/05/15 00:54:11;;;;;;;13.57;9.23;;;;;;;19.97;100.00;101073.72;4880506;29;20036;-73
2022/05/15 00:56:59;;;;;;;15.30;9.05;;;;;;;19.97;100.00;101064.88;4880570;29;20036;-73
2022/05/15 00:59:49;;;;;;;13.85;9.15;;;;;;;20.38;100.00;101066.31;4880725;29;20029;-74
2022/05/15 01:02:51;;;;;;;13.65;8.82;;;;;;;20.21;100.00;101063.66;4880878;29;20022;-73
2022/05/15 01:05:42;;;;;;;17.00;9.95;;;;;;;20.02;100.00;101074.34;4880602;29;20033;-73
2022/05/15 01:08:29;;;;;;;15.57;9.48;;;;;;;20.10;100.00;101074.88;4880501;29;20040;-73
2022/05/15 01:11:18;;;;;;;15.90;9.10;;;;;;;19.92;100.00;101078.41;4866842;29;20447;-73
2022/05/15 01:14:08;;;;;;;13.60;8.43;;;;;;;19.62;100.00;101087.03;4880939;29;20044;-74
2022/05/15 01:16:54;;;;;;;11.82;8.13;;;;;;;20.06;100.00;101091.88;4879671;29;20075;-73
2022/05/15 01:19:42;;;;;;;13.07;8.23;;;;;;;20.14;100.00;101095.06;4880158;29;20071;-72
2022/05/15 01:22:28;;;;;;;8.90;7.45;;;;;;;20.18;100.00;101101.94;4867616;29;20451;-73
2022/05/15 01:25:17;;;;;;;10.75;7.55;;;;;;;20.03;100.00;101097.34;4880286;29;20041;-73
2022/05/15 01:28:13;;;;;;;9.50;7.15;;;;;;;20.23;100.00;101097.25;4880283;29;20399;-72
2022/05/15 01:30:59;;;;;;;9.35;7.90;;;;;;;19.99;100.00;101094.91;4880189;29;20037;-73
2022/05/15 01:33:49;;;;;;;9.45;7.85;;;;;;;19.89;100.00;101086.53;4883488;29;20025;-72
2022/05/15 01:36:35;;;;;;;9.73;7.60;;;;;;;19.97;100.00;101089.66;4883527;29;20044;-74
2022/05/15 01:39:21;;;;;;;11.60;7.75;;;;;;;19.96;100.00;101084.41;4883714;29;20028;-73
2022/05/15 01:42:07;;;;;;;9.23;7.55;;;;;;;20.21;100.00;101092.94;4883560;29;20439;-74
2022/05/15 01:44:53;;;;;;;9.68;8.00;;;;;;;20.16;100.00;101094.94;4869874;29;20055;-73
2022/05/15 01:47:39;;;;;;;12.10;7.20;;;;;;;19.94;100.00;101097.81;4883052;29;20025;-73
2022/05/15 01:50:25;;;;;;;11.48;7.32;;;;;;;19.96;100.00;101100.38;4870226;29;20040;-73
2022/05/15 01:53:11;;;;;;;10.30;7.35;;;;;;;19.86;100.00;101104.44;4869884;29;20063;-73
2022/05/15 01:55:57;;;;;;;9.80;7.45;;;;;;;19.90;100.00;101108.66;4870332;29;20116;-73
2022/05/15 01:58:42;;;;;;;11.45;7.68;;;;;;;19.90;100.00;101104.22;4883386;29;20029;-73
2022/05/15 02:01:28;;;;;;;11.13;7.95;;;;;;;19.90;100.00;101106.00;4883404;29;20112;-73
2022/05/15 02:04:14;;;;;;;11.52;8.52;;;;;;;20.06;100.00;101106.97;4883363;29;20128;-74
2022/05/15 02:07:00;;;;;;;14.05;8.65;;;;;;;20.15;100.00;101110.06;4869938;29;20085;-73
2022/05/15 02:09:45;;;;;;;13.68;9.43;;;;;;;19.95;100.00;101115.50;4882683;29;20037;-73
2022/05/15 02:12:31;;;;;;;11.68;9.43;;;;;;;20.20;100.00;101115.13;4869287;29;20123;-73
2022/05/15 02:15:17;;;;;;;15.23;10.25;;;;;;;19.90;100.00;101114.00;4882713;29;20036;-73
2022/05/15 02:18:04;;;;;;;12.30;9.55;;;;;;;19.85;100.00;101119.53;4869663;29;20045;-73
2022/05/15 02:20:50;;;;;;;14.18;9.25;;;;;;;19.78;100.00;101120.78;4882998;29;20048;-73
2022/05/15 02:23:36;;;;;;;13.85;8.95;;;;;;;19.71;100.00;101119.34;4882091;29;20129;-73
2022/05/15 02:26:21;;;;;;;15.25;9.77;;;;;;;19.63;100.00;101107.34;4883114;29;20040;-73
2022/05/15 02:29:08;;;;;;;15.93;9.32;;;;;;;19.75;100.00;101107.63;4883059;29;20104;-72
2022/05/15 02:31:54;;;;;;;15.73;10.38;;;;;;;19.94;100.00;101099.59;4882341;29;20033;-73
2022/05/15 02:34:40;;;;;;;17.52;10.05;;;;;;;19.66;100.00;101116.06;4881855;29;20039;-73
2022/05/15 02:37:25;;;;;;;14.43;10.63;;;;;;;19.44;100.00;101119.81;4882196;29;20025;-73
2022/05/15 02:40:12;;;;;;;14.68;10.65;;;;;;;19.44;100.00;101120.66;4882403;29;20033;-73
2022/05/15 02:42:58;;;;;;;18.40;10.57;;;;;;;19.30;100.00;101120.47;4881014;29;20032;-73
2022/05/15 02:45:44;;;;;;;15.07;10.25;;;;;;;19.62;100.00;101118.94;4882080;29;20061;-74
2022/05/15 02:51:33;;;;;;;17.63;11.02;;;;;;;19.39;100.00;101127.13;4882458;29;20040;-73
2022/05/15 02:54:19;;;;;;;12.95;9.98;;;;;;;19.45;100.00;101122.38;4881200;29;20413;-73
2022/05/15 02:57:07;;;;;;;13.30;9.80;;;;;;;19.12;100.00;101115.94;4881423;29;20048;-73
2022/05/15 02:59:53;;;;;;;13.15;9.70;;;;;;;19.34;100.00;101132.69;4882588;29;20356;-73
2022/05/15 03:02:40;;;;;;;11.80;9.20;;;;;;;19.35;100.00;101122.88;4882689;29;20495;-72
2022/05/15 03:05:26;;;;;;;10.93;8.45;;;;;;;19.47;100.00;101135.59;4868919;29;20368;-74
2022/05/15 03:08:12;;;;;;;12.25;8.80;;;;;;;19.49;100.00;101139.91;4881651;29;20032;-72
2022/05/15 03:10:58;;;;;;;10.32;8.55;;;;;;;19.56;100.00;101141.34;4881716;29;20472;-73
2022/05/15 03:13:44;;;;;;;10.60;8.07;;;;;;;19.55;100.00;101136.09;4882431;29;20132;-72
2022/05/15 03:16:29;;;;;;;16.58;8.02;;;;;;;19.47;100.00;101147.09;4881677;29;20514;-73
2022/05/15 03:19:15;;;;;;;14.43;8.75;;;;;;;19.42;100.00;101142.94;4881427;29;20124;-73
2022/05/15 03:22:01;;;;;;;12.02;8.38;;;;;;;19.58;100.00;101144.81;4881485;29;20044;-72
2022/05/15 03:24:47;;;;;;;9.13;7.78;;;;;;;19.68;100.00;101142.59;4881110;29;20116;-73
2022/05/15 03:27:32;;;;;;;12.77;7.63;;;;;;;19.65;100.00;101137.41;4881849;29;20020;-73
2022/05/15 03:30:18;;;;;;;11.48;8.07;;;;;;;19.96;100.00;101134.94;4868063;29;20033;-73
2022/05/15 03:33:05;;;;;;;10.07;8.15;;;;;;;19.84;100.00;101131.09;4881395;29;20029;-73
2022/05/15 03:35:51;;;;;;;9.18;8.10;;;;;;;19.93;100.00;101140.44;4881721;29;20032;-73
2022/05/15 03:38:42;;;;;;;11.43;7.65;;;;;;;19.48;100.00;101138.19;4882002;29;20029;-73
2022/05/15 03:41:28;;;;;;;10.25;7.88;;;;;;;19.36;100.00;101145.91;4881566;29;20107;-73
2022/05/15 03:44:14;;;;;;;10.73;7.97;;;;;;;19.26;100.00;101139.28;4880983;29;20443;-73
2022/05/15 03:47:02;;;;;;;12.43;8.23;;;;;;;19.49;100.00;101150.53;4881757;29;20478;-73
2022/05/15 03:49:48;;;;;;;11.05;7.90;;;;;;;19.57;100.00;101142.22;4880847;29;20112;-73
2022/05/15 03:52:34;;;;;;;17.05;8.77;;;;;;;19.45;100.00;101151.63;4881579;29;20576;-73
2022/05/15 03:55:20;;;;;;;10.77;8.25;;;;;;;19.36;100.00;101141.41;4881149;29;20450;-74
2022/05/15 03:58:06;;;;;;;13.38;8.30;;;;;;;19.35;100.00;101147.69;4881210;29;20033;-73
2022/05/15 04:00:52;;;;;;;14.85;8.32;;;;;;;19.45;100.00;101154.28;4880471;29;20063;-73
2022/05/15 04:03:38;;;;;;;14.65;8.55;;;;;;;19.62;100.00;101159.69;4880733;29;20029;-74
2022/05/15 04:06:24;;;;;;;14.80;8.85;;;;;;;19.73;100.00;101160.00;4867430;29;20120;-74
2022/05/15 04:09:10;;;;;;;11.52;7.95;;;;;;;20.23;100.00;101153.13;4867732;29;20043;-74
2022/05/15 04:11:56;;;;;;;13.07;8.02;;;;;;;19.94;100.00;101153.69;4879875;29;20408;-74
2022/05/15 04:14:42;;;;;;;14.77;9.05;;;;;;;19.49;100.00;101165.63;4880476;29;20025;-74
2022/05/15 04:17:28;;;;;;;13.30;8.70;;;;;;;19.38;100.00;101159.97;4880441;29;20535;-75
2022/05/15 04:20:16;;;;;;;12.60;9.00;;;;;;;19.50;100.00;101173.53;4881065;29;20025;-73
2022/05/15 04:23:03;;;;;;;16.38;8.52;;;;;;;19.62;100.00;101177.41;4880759;29;20045;-74
2022/05/15 04:25:49;;;;;;;16.17;8.45;;;;;;;19.96;100.00;101175.72;4880876;29;20104;-74
2022/05/15 04:28:35;;;;;;;13.57;8.18;;;;;;;20.26;100.00;101168.06;4880321;29;20031;-73
2022/05/15 04:31:21;;;;;;;14.02;8.27;;;;;;;20.14;100.00;101177.53;4879479;29;20312;-73
2022/05/15 04:34:07;;;;;;;11.52;8.48;;;;;;;20.04;100.00;101173.56;4881217;29;20125;-73
2022/05/15 04:36:54;;;;;;;16.73;8.20;;;;;;;20.01;100.00;101171.03;4880267;29;20029;-74
2022/05/15 04:39:40;;;;;;;10.57;8.02;;;;;;;20.15;100.00;101176.59;4880828;29;20418;-74
2022/05/15 04:42:25;;;;;;;10.80;8.20;;;;;;;19.85;100.00;101174.53;4880660;29;20447;-73
2022/05/15 04:45:11;;;;;;;11.25;8.02;;;;;;;19.99;100.00;101183.56;4880453;29;20100;-74
2022/05/15 04:47:57;;;;;;;9.48;8.00;;;;;;;20.38;100.00;101184.31;4867134;29;20044;-74
2022/05/15 04:50:43;;;;;;;11.38;8.15;;;;;;;20.45;100.00;101187.50;4867146;29;20160;-73
2022/05/15 04:53:30;;;;;;;11.40;8.02;;;;;;;20.20;100.00;101190.53;4880199;29;20482;-74
2022/05/15 04:56:16;;;;;;;10.48;7.82;;;;;;;19.98;100.00;101189.81;4879843;29;20041;-73
2022/05/15 04:59:02;;;;;;;10.98;7.50;;;;;;;20.17;100.00;101190.66;4880772;29;20033;-73
2022/05/15 05:01:48;;;;;;;10.90;8.30;;;;;;;20.09;100.00;101200.81;4880107;29;20029;-74
2022/05/15 05:04:34;;;;;;;10.27;8.02;;;;;;;20.28;100.00;101196.31;4880524;29;20069;-73
2022/05/15 05:07:19;;;;;;;10.52;7.70;;;;;;;20.27;100.00;101197.28;4884062;29;20044;-73
2022/05/15 05:10:08;;;;;;;13.30;8.25;;;;;;;20.21;100.00;101205.53;4884741;29;20096;-73
2022/05/15 05:12:54;;;;;;;12.27;7.85;;;;;;;20.62;100.00;101201.66;4882866;29;20033;-73
2022/05/15 05:15:39;;;;;;;11.45;7.88;;;;;;;20.73;100.00;101194.00;4883934;29;20064;-73
2022/05/15 05:18:25;;;;;;;8.57;7.47;;;;;;;20.96;100.00;101193.69;4882381;29;20478;-74
2022/05/15 05:21:11;;;;;;;12.15;7.55;;;;;;;20.98;100.00;101194.47;4883918;29;20450;-73
2022/05/15 05:23:57;;;;;;;10.18;6.72;;;;;;;21.36;100.00;101198.63;4883755;29;20071;-73
2022/05/15 05:26:42;;;;;;;8.45;7.40;;;;;;;21.01;100.00;101191.66;4883345;29;20407;-73
2022/05/15 05:29:28;;;;;;;10.23;7.22;;;;;;;21.28;100.00;101194.66;4882647;29;20037;-74
2022/05/15 05:32:14;;;;;;;8.57;7.15;;;;;;;21.49;100.00;101205.00;4883972;29;20465;-73
2022/05/15 05:35:00;;;;;;;7.57;6.70;;;;;;;21.13;100.00;101204.31;4883685;29;20068;-74
2022/05/15 05:37:46;;;;;;;12.30;7.05;;;;;;;21.04;100.00;101211.94;4883560;29;20099;-74
2022/05/15 05:40:32;;;;;;;8.45;7.25;;;;;;;21.14;100.00;101208.69;4883369;29;20030;-73
2022/05/15 05:43:18;;;;;;;13.00;7.85;;;;;;;21.24;100.00;101211.75;4883930;29;20029;-74
2022/05/15 05:46:03;;;;;;;13.27;7.93;;;;;;;21.38;100.00;101218.06;4870734;29;20165;-73
2022/05/15 05:48:49;;;;;;;11.52;7.97;;;;;;;21.36;100.00;101213.75;4869659;29;20024;-73
2022/05/15 05:51:35;;;;;;;10.48;7.18;;;;;;;21.58;100.00;101225.00;4870704;29;20048;-73
2022/05/15 05:54:21;;;;;;;11.32;7.30;;;;;;;21.60;100.00;101217.75;4883156;29;20421;-72
2022/05/15 05:57:07;;;;;;;9.43;6.82;;;;;;;21.89;100.00;101227.69;4883782;29;20108;-73
2022/05/15 05:59:52;;;;;;;10.48;7.18;;;;;;;21.66;100.00;101231.63;4882797;29;20344;-73
2022/05/15 06:02:38;;;;;;;10.60;6.85;;;;;;;22.02;100.00;101234.09;4883786;29;20383;-73
2022/05/15 06:05:24;;;;;;;9.23;6.50;;;;;;;22.22;100.00;101244.50;4882868;29;20041;-73
2022/05/15 06:08:11;;;;;;;10.55;7.03;;;;;;;22.07;100.00;101251.56;4870310;29;20028;-73
2022/05/15 06:10:57;;;;;;;11.88;6.78;;;;;;;21.78;100.00;101241.66;4882250;29;20029;-73
2022/05/15 06:13:43;;;;;;;7.32;6.10;;;;;;;21.80;100.00;101242.44;4882828;29;20089;-73
2022/05/15 06:16:31;;;;;;;9.77;6.25;;;;;;;21.83;100.00;101247.56;4882462;29;20043;-73
2022/05/15 06:19:17;;;;;;;9.07;6.25;;;;;;;22.05;100.00;101241.91;4882210;29;20048;-74
2022/05/15 06:22:03;;;;;;;10.57;7.28;;;;;;;21.98;100.00;101248.56;4869388;29;20358;-73
2022/05/15 06:24:49;;;;;;;9.30;7.22;;;;;;;22.26;100.00;101244.22;4881978;29;20422;-73
2022/05/15 06:27:34;;;;;;;12.02;6.57;;;;;;;22.57;100.00;101246.03;4883281;29;20084;-72
2022/05/15 06:30:20;;;;;;;10.98;6.70;;;;;;;21.82;100.00;101250.38;4868648;29;20112;-73
2022/05/15 06:33:07;;;;;;;9.30;6.50;;;;;;;22.32;100.00;101256.38;4882331;29;20036;-74
2022/05/15 06:35:52;;;;;;;10.32;6.32;;;;;;;22.71;100.00;101251.44;4882416;29;20128;-73
2022/05/15 06:38:41;;;;;;;9.73;6.13;;;;;;;23.04;100.00;101254.75;4868675;29;20466;-73
2022/05/15 06:41:26;;;;;;;9.18;6.63;;;;;;;22.35;100.00;101262.38;4881245;29;20033;-73
2022/05/15 06:44:12;;;;;;;9.32;6.22;;;;;;;22.31;100.00;101263.50;4881731;29;20064;-73
2022/05/15 06:46:58;;;;;;;8.88;5.97;;;;;;;22.46;100.00;101268.00;4868997;29;20029;-74
2022/05/15 06:49:44;;;;;;;11.95;6.72;;;;;;;22.49;100.00;101259.84;4882057;29;20033;-73
2022/05/15 06:52:30;;;;;;;11.75;6.00;;;;;;;22.84;100.00;101247.94;4868872;29;20382;-74
2022/05/15 06:55:19;;;;;;;11.18;5.60;;;;;;;23.48;100.00;101255.63;4882109;29;20029;-74
2022/05/15 06:58:05;;;;;;;10.63;5.93;;;;;;;23.51;100.00;101254.56;4881891;29;20025;-73
2022/05/15 07:00:51;;;;;;;10.85;5.88;;;;;;;23.05;100.00;101252.00;4882016;29;20458;-73
2022/05/15 07:03:37;;;;;;;8.52;5.75;;;;;;;22.78;100.00;101261.66;4882272;29;20465;-73
2022/05/15 07:06:23;;;;;;;8.52;5.78;;;;;;;22.75;100.00;101258.31;4881951;29;20037;-73
2022/05/15 07:09:09;;;;;;;8.45;6.47;;;;;;;22.97;100.00;101253.41;4881437;29;20458;-73
2022/05/15 07:11:55;;;;;;;10.43;6.10;;;;;;;23.03;100.00;101258.41;4882010;29;20323;-73
2022/05/15 07:14:41;;;;;;;8.00;5.85;;;;;;;22.96;100.00;101255.22;4882270;29;20032;-73
2022/05/15 07:17:27;;;;;;;7.60;5.50;;;;;;;23.58;100.00;101258.59;4880888;29;20118;-74
2022/05/15 07:20:13;;;;;;;8.20;5.63;;;;;;;23.39;100.00;101246.34;4881843;29;20040;-73
2022/05/15 07:22:59;;;;;;;10.25;6.18;;;;;;;23.70;100.00;101253.31;4868182;29;20048;-74
2022/05/15 07:25:45;;;;;;;8.35;5.95;;;;;;;23.86;100.00;101253.22;4881975;29;20577;-73
2022/05/15 07:28:31;;;;;;;10.95;5.97;;;;;;;23.88;100.00;101251.28;4880921;29;20088;-74
2022/05/15 07:31:20;;;;;;;9.73;6.03;;;;;;;24.01;100.00;101258.47;4881069;29;20037;-73
2022/05/15 07:34:07;;;;;;;9.30;5.70;;;;;;;24.29;100.00;101258.41;4881480;29;20415;-74
2022/05/15 07:36:53;;;;;;;9.80;5.32;;;;;;;24.33;100.00;101257.22;4867938;29;20051;-74
2022/05/15 07:39:39;;;;;;;7.07;5.80;;;;;;;24.78;100.00;101251.53;4881040;29;20032;-73
2022/05/15 07:42:25;;;;;;;9.10;5.40;;;;;;;24.96;98.60;101260.13;4880818;29;20140;-74
2022/05/15 07:45:12;;;;;;;8.65;5.93;;;;;;;24.81;98.75;101270.09;4881580;29;20033;-74
2022/05/15 07:47:58;;;;;;;8.80;5.53;;;;;;;25.16;99.54;101267.69;4869033;29;20168;-73
2022/05/15 07:50:44;;;;;;;8.23;5.35;;;;;;;25.68;93.50;101274.66;4869819;29;20029;-73
2022/05/15 07:53:30;;;;;;;9.60;5.57;;;;;;;26.00;92.33;101270.56;4881113;29;20488;-74
2022/05/15 07:56:16;;;;;;;14.07;5.53;;;;;;;25.77;92.25;101274.03;4881303;29;20033;-74
2022/05/15 07:59:02;;;;;;;7.63;5.35;;;;;;;25.14;94.72;101274.94;4881309;29;20152;-73
2022/05/15 08:01:47;;;;;;;7.30;5.90;;;;;;;25.20;91.95;101280.75;4881168;29;20366;-74
2022/05/15 08:08:00;;;;;;;9.15;5.20;;;;;;;25.26;94.30;101264.25;4882140;29;20029;-73
2022/05/15 08:10:46;;;;;;;8.88;5.25;;;;;;;25.14;97.71;101264.22;4882211;29;20028;-74
2022/05/15 08:13:32;;;;;;;7.95;5.78;;;;;;;24.59;100.00;101263.56;4880491;29;20021;-74
2022/05/15 08:16:18;;;;;;;9.00;4.97;;;;;;;24.44;100.00;101267.25;4867447;29;20297;-74
2022/05/15 08:25:32;;;;;;;6.82;5.70;;;;;;;25.02;98.84;101273.97;4861002;29;20044;-74
2022/05/15 08:28:18;;;;;;;8.35;5.47;;;;;;;24.32;100.00;101278.75;4880574;29;20029;-73
2022/05/15 08:31:06;;;;;;;6.35;5.53;;;;;;;24.55;100.00;101284.31;4867016;29;20033;-74
2022/05/15 08:33:53;;;;;;;7.75;5.35;;;;;;;24.44;100.00;101283.31;4883016;29;20044;-73
2022/05/15 08:36:41;;;;;;;7.05;5.88;;;;;;;24.87;100.00;101279.53;4882224;29;20044;-73
2022/05/15 08:39:29;;;;;;;10.73;6.30;;;;;;;25.17;100.00;101278.31;4881746;29;20036;-74
2022/05/15 08:42:48;;;;;;;9.60;6.70;;;;;;;25.56;100.00;101282.75;4884992;29;20029;-72
2022/05/15 08:45:41;;;;;;;10.20;6.55;;;;;;;25.03;100.00;101272.19;4861328;29;20040;-73
2022/05/15 08:48:31;;;;;;;12.65;6.93;;;;;;;25.23;100.00;101268.97;4871585;29;20370;-73
2022/05/15 08:51:17;;;;;;;10.75;6.80;;;;;;;26.00;99.92;101281.31;4873066;29;20101;-74
2022/05/15 08:54:07;;;;;;;8.63;7.20;;;;;;;25.94;96.40;101280.91;4885568;29;20150;-73
2022/05/15 08:56:54;;;;;;;8.15;7.03;;;;;;;25.91;95.71;101284.63;4884834;29;20029;-73
2022/05/15 08:59:51;;;;;;;8.18;6.78;;;;;;;26.17;97.40;101277.41;4887578;29;20044;-73
2022/05/15 09:02:42;;;;;;;9.15;6.10;;;;;;;26.64;93.53;101283.69;4886246;29;20101;-72
2022/05/15 09:05:29;;;;;;;8.85;5.93;;;;;;;26.53;93.52;101285.44;4874093;29;20029;-73
2022/05/15 09:08:54;;;;;;;9.80;6.28;;;;;;;26.43;90.87;101289.78;4886398;29;20414;-74
2022/05/15 09:11:43;;;;;;;9.48;5.82;;;;;;;26.83;89.80;101285.84;4872915;29;20029;-74
2022/05/15 09:14:47;;;;;;;9.43;5.82;;;;;;;27.33;86.20;101278.34;4887480;29;20378;-74
2022/05/15 09:17:42;;;;;;;8.57;5.70;;;;;;;27.02;86.77;101280.78;4873747;29;20045;-73
2022/05/15 09:21:02;;;;;;;8.50;5.63;;;;;;;26.44;91.36;101284.28;4874256;29;20021;-74
2022/05/15 09:23:54;;;;;;;13.50;5.53;;;;;;;26.45;93.90;101293.22;4853934;29;20061;-72
2022/05/15 09:26:46;;;;;;;7.70;5.35;;;;;;;26.93;92.67;101284.19;4885373;29;20029;-74
2022/05/15 09:29:34;;;;;;;6.93;5.38;;;;;;;26.95;89.92;101283.09;4886004;29;20048;-73
2022/05/15 09:32:46;;;;;;;7.47;5.25;;;;;;;26.50;91.03;101291.03;4873211;29;20120;-73
2022/05/15 09:35:40;;;;;;;6.65;5.30;;;;;;;27.02;89.73;101287.03;4884812;29;20025;-74
2022/05/15 09:38:29;;;;;;;6.50;5.57;;;;;;;26.94;90.34;101294.84;4885367;29;20037;-73
2022/05/15 09:44:33;;;;;;;6.40;5.55;;;;;;;27.16;89.47;101285.97;4884412;29;20061;-74
2022/05/15 09:47:18;;;;;;;9.95;5.65;;;;;;;27.50;89.19;101293.19;4884128;29;20029;-73
2022/05/15 09:50:09;;;;;;;10.98;6.00;;;;;;;26.62;92.54;101300.91;4884748;29;20037;-74
2022/05/15 09:52:58;;;;;;;9.38;6.30;;;;;;;26.46;93.16;101290.44;4886601;29;20104;-73
2022/05/15 09:55:56;;;;;;;8.23;6.15;;;;;;;26.85;90.79;101292.00;4884971;29;20104;-73
2022/05/15 09:58:51;;;;;;;7.18;6.40;;;;;;;26.07;97.04;101287.09;4884585;29;20033;-73
2022/05/15 10:01:49;;;;;;;10.55;6.55;;;;;;;26.08;97.07;101296.91;4873032;29;20481;-74
2022/05/15 10:04:39;;;;;;;8.82;7.13;;;;;;;26.02;99.28;101291.94;4869856;29;20064;-73
2022/05/15 10:07:29;;;;;;;7.90;6.40;;;;;;;25.91;98.79;101295.38;4883426;29;20040;-73
2022/05/15 10:10:23;;;;;;;7.57;6.30;;;;;;;25.87;100.00;101303.75;4883298;29;20025;-73
2022/05/15 10:13:22;;;;;;;9.52;6.78;;;;;;;25.62;100.00;101303.78;4882498;29;20025;-74
2022/05/15 10:16:17;;;;;;;10.25;6.95;;;;;;;26.03;99.56;101299.91;4883684;29;20044;-73
2022/05/15 10:19:29;;;;;;;8.07;6.18;;;;;;;26.22;98.67;101302.09;4882817;29;20071;-74
2022/05/15 10:22:30;;;;;;;6.95;6.25;;;;;;;26.62;94.35;101292.84;4866936;29;20477;-73
2022/05/15 10:25:18;;;;;;;11.80;6.20;;;;;;;26.53;97.18;101288.13;4882904;29;20033;-73
2022/05/15 10:28:25;;;;;;;8.82;6.45;;;;;;;27.05;91.70;101284.09;4883473;29;20041;-74
2022/05/15 10:31:30;;;;;;;11.65;6.43;;;;;;;26.97;92.41;101283.00;4882513;29;20462;-74
2022/05/15 10:34:23;;;;;;;8.27;6.43;;;;;;;27.25;90.64;101290.69;4882120;29;20033;-73
2022/05/15 10:37:29;;;;;;;11.70;6.00;;;;;;;27.02;92.69;101283.50;4868927;29;20366;-73
2022/05/15 10:40:36;;;;;;;11.32;6.30;;;;;;;26.76;92.96;101290.84;4871968;29;20040;-73
2022/05/15 10:43:43;;;;;;;8.77;6.50;;;;;;;26.69;93.80;101278.00;4882586;29;20378;-74
2022/05/15 10:46:50;;;;;;;9.35;6.35;;;;;;;27.15;91.00;101290.50;4883172;29;20049;-74
2022/05/15 10:49:45;;;;;;;7.22;6.40;;;;;;;26.74;93.75;101281.19;4869580;29;20336;-73
2022/05/15 10:52:58;;;;;;;13.82;6.57;;;;;;;26.46;97.12;101297.63;4883702;29;20037;-75
2022/05/15 10:59:09;;;;;;;7.70;6.43;;;;;;;26.86;91.34;101296.38;4883655;29;20040;-73
2022/05/15 11:02:10;;;;;;;9.57;6.80;;;;;;;26.60;92.40;101305.56;4884012;29;20068;-73
2022/05/15 11:05:28;;;;;;;8.50;6.40;;;;;;;26.41;94.08;101308.69;4882395;29;20039;-73
2022/05/15 11:08:33;;;;;;;16.33;6.88;;;;;;;26.90;90.75;101298.75;4882482;29;20033;-74
2022/05/15 11:11:33;;;;;;;9.05;6.68;;;;;;;26.71;92.66;101300.22;4882416;29;20108;-74
2022/05/15 11:14:48;;;;;;;9.70;6.28;;;;;;;26.72;92.83;101305.50;4882600;29;20029;-73
2022/05/15 11:17:52;;;;;;;8.20;5.97;;;;;;;27.15;90.47;101295.00;4867044;29;20049;-74
2022/05/15 11:20:49;;;;;;;8.13;5.78;;;;;;;27.90;86.24;101288.19;4882229;29;20048;-74
2022/05/15 11:23:53;;;;;;;7.85;5.68;;;;;;;27.81;85.96;101292.47;4882320;29;20100;-73
2022/05/15 11:26:48;;;;;;;6.00;5.40;;;;;;;27.78;84.79;101291.84;4882365;29;20104;-74
2022/05/15 11:29:38;;;;;;;6.32;5.55;;;;;;;28.27;78.14;101286.94;4883758;29;20149;-74
2022/05/15 11:32:57;;;;;;;6.65;4.85;;;;;;;27.68;82.07;101282.78;4869583;29;20048;-74
2022/05/15 11:36:13;;;;;;;7.03;6.05;;;;;;;27.33;83.53;101291.78;4869759;29;20116;-74
2022/05/15 11:39:05;;;;;;;6.40;4.95;;;;;;;27.56;81.43;101287.28;4869276;29;20051;-73
2022/05/15 11:42:10;;;;;;;6.05;5.32;;;;;;;27.29;86.35;101286.78;4882382;29;20404;-74
2022/05/15 11:45:28;;;;;;;10.07;5.35;;;;;;;27.55;84.15;101277.50;4869782;29;20032;-74
2022/05/15 11:48:16;;;;;;;7.72;5.72;;;;;;;26.01;91.44;101272.31;4881417;29;20423;-73
2022/05/15 11:51:05;;;;;;;8.30;6.40;;;;;;;26.40;92.57;101269.38;4884898;29;20029;-73
2022/05/15 11:54:08;;;;;;;8.60;6.18;;;;;;;26.73;93.10;101264.19;4869791;29;20044;-73
2022/05/15 11:56:56;;;;;;;6.90;6.20;;;;;;;27.15;90.31;101266.28;4882967;29;20029;-74
2022/05/15 11:59:55;;;;;;;8.93;6.15;;;;;;;26.61;92.47;101261.56;4882134;29;20025;-73
2022/05/15 12:02:49;;;;;;;7.40;5.97;;;;;;;27.33;88.28;101261.34;4883580;29;20032;-74
2022/05/15 12:06:03;;;;;;;7.18;6.47;;;;;;;26.94;91.80;101259.00;4883242;29;20434;-74
2022/05/15 12:09:39;;;;;;;10.88;6.15;;;;;;;27.20;91.36;101260.56;4883329;29;20506;-74
2022/05/15 12:12:29;;;;;;;8.52;6.03;;;;;;;27.26;90.92;101255.59;4830022;29;20104;-73
2022/05/15 12:15:25;;;;;;;7.28;6.22;;;;;;;26.83;91.75;101256.28;4885681;29;20032;-73
2022/05/15 12:18:28;;;;;;;11.52;6.70;;;;;;;26.79;88.97;101258.34;4883955;29;20053;-73
2022/05/15 12:21:23;;;;;;;9.95;5.82;;;;;;;27.00;90.80;101255.84;4883340;29;20032;-73
2022/05/15 12:24:29;;;;;;;8.85;6.13;;;;;;;27.51;87.30;101248.28;4859346;29;20037;-73
2022/05/15 12:27:21;;;;;;;8.18;6.03;;;;;;;27.44;83.04;101245.19;4882487;29;20035;-74
2022/05/15 12:30:16;;;;;;;11.07;5.40;;;;;;;28.73;76.39;101250.66;4882237;29;20033;-74
2022/05/15 12:33:07;;;;;;;10.15;6.57;;;;;;;27.65;74.68;101248.03;4870328;29;20037;-74
2022/05/15 12:35:54;;;;;;;7.40;5.63;;;;;;;27.32;77.53;101248.84;4870815;29;20040;-73
2022/05/15 12:38:46;;;;;;;7.68;5.00;;;;;;;27.11;80.03;101242.41;4883246;29;20108;-73
2022/05/15 12:41:42;;;;;;;6.47;5.40;;;;;;;26.79;77.14;101234.16;4881701;29;20017;-74
2022/05/15 12:44:34;;;;;;;7.55;4.78;;;;;;;27.49;73.84;101238.47;4880574;29;20060;-74
2022/05/15 12:47:24;;;;;;;12.38;5.18;;;;;;;27.55;72.40;101234.44;4882047;29;20033;-75
2022/05/15 12:50:15;;;;;;;8.65;5.30;;;;;;;28.17;70.31;101235.66;4868282;29;20096;-73
2022/05/15 12:53:03;;;;;;;7.22;4.53;;;;;;;28.18;68.69;101240.03;4881625;29;20029;-73
2022/05/15 12:55:50;;;;;;;8.82;4.78;;;;;;;28.16;66.24;101233.91;4867740;29;20031;-74
2022/05/15 12:58:37;;;;;;;6.72;5.20;;;;;;;28.50;64.66;101240.97;4869167;29;20029;-74
2022/05/15 13:01:31;;;;;;;6.00;4.70;;;;;;;28.53;60.57;101237.16;4880742;29;20048;-74
2022/05/15 13:04:21;;;;;;;6.85;4.55;;;;;;;28.42;61.23;101229.97;4868201;29;20048;-74
2022/05/15 13:07:08;;;;;;;9.23;4.40;;;;;;;28.08;59.76;101230.97;4880066;29;20060;-75
2022/05/15 13:10:08;;;;;;;6.60;4.25;;;;;;;27.75;58.48;101222.91;4880874;29;20111;-74
2022/05/15 13:13:20;;;;;;;6.25;4.00;;;;;;;28.24;58.92;101222.50;4867833;29;20061;-73
2022/05/15 13:16:24;;;;;;;7.85;4.50;;;;;;;27.29;59.97;101214.97;4868682;29;20037;-74
2022/05/15 13:19:14;;;;;;;4.93;3.85;;;;;;;27.12;58.50;101212.72;4868701;29;20053;-74
2022/05/15 13:22:02;;;;;;;5.53;3.92;;;;;;;27.19;60.29;101208.56;4881392;29;20088;-74